createdAt,value
2022-10-22T00:00:26.434Z,16.7
2022-10-22T00:01:29.798Z,16.7
2022-10-22T00:02:33.059Z,16.7
2022-10-22T00:03:35.979Z,16.7
2022-10-22T00:04:38.855Z,16.7
2022-10-22T00:05:41.800Z,16.7
2022-10-22T00:06:45.525Z,16.8
2022-10-22T00:07:48.407Z,16.8
2022-10-22T00:08:51.269Z,16.8
2022-10-22T00:09:55.085Z,16.8
2022-10-22T00:10:57.958Z,16.8
2022-10-22T00:12:00.813Z,16.8
2022-10-22T00:13:03.674Z,16.8
2022-10-22T00:14:07.086Z,16.8
2022-10-22T00:15:09.519Z,16.8
2022-10-22T00:16:12.295Z,16.8
2022-10-22T00:17:15.014Z,16.8
2022-10-22T00:18:18.382Z,16.8
2022-10-22T00:19:21.455Z,16.8
2022-10-22T00:20:24.238Z,16.8
2022-10-22T00:21:26.972Z,16.8
2022-10-22T00:22:30.062Z,16.8
2022-10-22T00:23:33.904Z,16.8
2022-10-22T00:24:37.830Z,16.8
2022-10-22T00:25:40.066Z,16.8
2022-10-22T00:26:42.232Z,16.8
2022-10-22T00:27:45.029Z,16.8
2022-10-22T00:28:47.937Z,16.8
2022-10-22T00:29:51.084Z,16.8
2022-10-22T00:30:53.985Z,16.8
2022-10-22T00:31:57.285Z,16.8
2022-10-22T00:32:59.871Z,16.8
2022-10-22T00:34:02.955Z,16.8
2022-10-22T00:35:06.773Z,16.8
2022-10-22T00:36:09.585Z,16.8
2022-10-22T00:37:12.712Z,16.8
2022-10-22T00:38:15.849Z,16.8
2022-10-22T00:39:19.305Z,16.8
2022-10-22T00:40:22.598Z,16.8
2022-10-22T00:41:25.194Z,16.8
2022-10-22T00:42:28.260Z,16.8
2022-10-22T00:43:31.599Z,16.7
2022-10-22T00:44:35.044Z,16.7
2022-10-22T00:45:38.347Z,16.7
2022-10-22T00:46:41.496Z,16.7
2022-10-22T00:47:45.331Z,16.7
2022-10-22T00:48:48.599Z,16.7
2022-10-22T00:49:51.690Z,16.7
2022-10-22T00:50:54.540Z,16.7
2022-10-22T00:51:57.637Z,16.7
2022-10-22T00:53:00.904Z,16.7
2022-10-22T00:54:03.691Z,16.7
2022-10-22T00:55:07.263Z,16.7
2022-10-22T00:56:10.133Z,16.7
2022-10-22T00:57:13.276Z,16.7
2022-10-22T00:58:15.800Z,16.7
2022-10-22T00:59:18.393Z,16.7
2022-10-22T01:00:21.911Z,16.7
2022-10-22T01:01:25.289Z,16.7
2022-10-22T01:02:28.172Z,16.7
2022-10-22T01:03:31.445Z,16.7
2022-10-22T01:04:34.244Z,16.7
2022-10-22T01:05:37.112Z,16.7
2022-10-22T01:06:40.964Z,16.7
2022-10-22T01:07:43.490Z,16.7
2022-10-22T01:08:46.904Z,16.7
2022-10-22T01:09:50.845Z,16.7
2022-10-22T01:10:55.294Z,16.7
2022-10-22T01:11:58.610Z,16.7
2022-10-22T01:13:02.063Z,16.7
2022-10-22T01:14:05.395Z,16.7
2022-10-22T01:15:08.182Z,16.7
2022-10-22T01:16:12.047Z,16.7
2022-10-22T01:17:15.570Z,16.7
2022-10-22T01:18:18.514Z,16.7
2022-10-22T01:19:21.861Z,16.7
2022-10-22T01:20:25.227Z,16.7
2022-10-22T01:21:27.463Z,16.8
2022-10-22T01:22:30.629Z,16.8
2022-10-22T01:23:33.107Z,16.8
2022-10-22T01:24:36.004Z,16.8
2022-10-22T01:25:39.458Z,16.8
2022-10-22T01:26:42.957Z,16.8
2022-10-22T01:27:45.815Z,16.8
2022-10-22T01:28:49.204Z,16.8
2022-10-22T01:29:51.981Z,16.8
2022-10-22T01:30:55.229Z,16.8
2022-10-22T01:31:57.747Z,16.8
2022-10-22T01:33:00.549Z,16.8
2022-10-22T01:34:02.596Z,16.8
2022-10-22T01:35:06.036Z,16.8
2022-10-22T01:36:09.353Z,16.8
2022-10-22T01:37:11.588Z,16.8
2022-10-22T01:38:14.925Z,16.8
2022-10-22T01:39:17.701Z,16.8
2022-10-22T01:40:21.368Z,16.8
2022-10-22T01:41:24.441Z,16.8
2022-10-22T01:42:27.946Z,16.8
2022-10-22T01:43:30.689Z,16.8
2022-10-22T01:44:33.674Z,16.8
2022-10-22T01:45:38.524Z,16.8
2022-10-22T01:46:41.357Z,16.8
2022-10-22T01:47:44.947Z,16.8
2022-10-22T01:48:48.547Z,16.7
2022-10-22T01:49:51.148Z,16.8
2022-10-22T01:50:53.667Z,16.8
2022-10-22T01:51:57.076Z,16.8
2022-10-22T01:52:59.784Z,16.8
2022-10-22T01:54:02.944Z,16.8
2022-10-22T01:55:06.010Z,16.8
2022-10-22T01:56:09.485Z,16.8
2022-10-22T01:57:13.123Z,16.8
2022-10-22T01:58:16.634Z,16.8
2022-10-22T01:59:20.401Z,16.8
2022-10-22T02:00:23.854Z,16.8
2022-10-22T02:01:26.466Z,16.8
2022-10-22T02:02:29.808Z,16.8
2022-10-22T02:03:32.888Z,16.8
2022-10-22T02:04:35.748Z,16.8
2022-10-22T02:05:39.464Z,16.8
2022-10-22T02:06:41.973Z,16.8
2022-10-22T02:07:44.847Z,16.8
2022-10-22T02:08:48.240Z,16.8
2022-10-22T02:09:51.158Z,16.7
2022-10-22T02:10:55.716Z,16.7
2022-10-22T02:11:58.833Z,16.7
2022-10-22T02:13:02.341Z,16.7
2022-10-22T02:14:05.881Z,16.7
2022-10-22T02:15:09.502Z,16.7
2022-10-22T02:16:12.773Z,16.7
2022-10-22T02:17:15.762Z,16.7
2022-10-22T02:18:18.829Z,16.7
2022-10-22T02:19:21.545Z,16.7
2022-10-22T02:20:24.261Z,16.7
2022-10-22T02:21:27.246Z,16.7
2022-10-22T02:22:30.378Z,16.7
2022-10-22T02:23:33.472Z,16.7
2022-10-22T02:24:35.985Z,16.7
2022-10-22T02:25:38.574Z,16.7
2022-10-22T02:26:41.928Z,16.7
2022-10-22T02:27:44.820Z,16.7
2022-10-22T02:28:48.341Z,16.7
2022-10-22T02:29:51.566Z,16.7
2022-10-22T02:30:55.294Z,16.7
2022-10-22T02:31:58.167Z,16.7
2022-10-22T02:33:01.583Z,16.7
2022-10-22T02:34:04.374Z,16.7
2022-10-22T02:35:07.754Z,16.7
2022-10-22T02:36:10.458Z,16.7
2022-10-22T02:37:12.616Z,16.7
2022-10-22T02:38:15.423Z,16.7
2022-10-22T02:39:18.008Z,16.7
2022-10-22T02:40:20.810Z,16.7
2022-10-22T02:41:23.598Z,16.7
2022-10-22T02:42:26.314Z,16.7
2022-10-22T02:43:29.140Z,16.8
2022-10-22T02:44:32.479Z,16.8
2022-10-22T02:45:35.734Z,16.7
2022-10-22T02:46:39.405Z,16.7
2022-10-22T02:47:42.769Z,16.7
2022-10-22T02:48:45.282Z,16.7
2022-10-22T02:49:48.391Z,16.8
2022-10-22T02:50:51.765Z,16.8
2022-10-22T02:51:54.554Z,16.8
2022-10-22T02:52:57.630Z,16.8
2022-10-22T02:54:00.225Z,16.8
2022-10-22T02:55:03.578Z,16.8
2022-10-22T02:56:06.636Z,16.8
2022-10-22T02:57:09.544Z,16.8
2022-10-22T02:58:12.758Z,16.8
2022-10-22T02:59:15.678Z,16.7
2022-10-22T03:00:18.473Z,16.7
2022-10-22T03:01:22.464Z,16.7
2022-10-22T03:02:25.744Z,16.7
2022-10-22T03:03:28.884Z,16.7
2022-10-22T03:04:31.954Z,16.7
2022-10-22T03:05:35.103Z,16.7
2022-10-22T03:06:37.923Z,16.7
2022-10-22T03:07:41.591Z,16.7
2022-10-22T03:08:45.977Z,16.7
2022-10-22T03:09:49.019Z,16.8
2022-10-22T03:10:51.804Z,16.7
2022-10-22T03:11:55.405Z,16.7
2022-10-22T03:12:58.189Z,16.7
2022-10-22T03:14:01.334Z,16.7
2022-10-22T03:15:04.223Z,16.7
2022-10-22T03:16:07.019Z,16.7
2022-10-22T03:17:10.594Z,16.7
2022-10-22T03:18:14.001Z,16.7
2022-10-22T03:19:17.074Z,16.7
2022-10-22T03:20:20.143Z,16.8
2022-10-22T03:21:23.098Z,16.8
2022-10-22T03:22:26.769Z,16.8
2022-10-22T03:23:29.755Z,16.8
2022-10-22T03:24:32.273Z,16.8
2022-10-22T03:25:35.970Z,16.8
2022-10-22T03:26:39.141Z,16.8
2022-10-22T03:27:42.503Z,16.8
2022-10-22T03:28:46.039Z,16.8
2022-10-22T03:29:49.154Z,16.8
2022-10-22T03:30:52.547Z,16.8
2022-10-22T03:31:55.681Z,16.8
2022-10-22T03:32:59.186Z,16.8
2022-10-22T03:34:02.110Z,16.8
2022-10-22T03:35:05.543Z,16.8
2022-10-22T03:36:08.677Z,16.8
2022-10-22T03:37:11.479Z,16.8
2022-10-22T03:38:13.915Z,16.8
2022-10-22T03:39:16.521Z,16.8
2022-10-22T03:40:18.680Z,16.8
2022-10-22T03:41:21.745Z,16.8
2022-10-22T03:42:26.030Z,16.8
2022-10-22T03:43:29.161Z,16.8
2022-10-22T03:44:32.334Z,16.8
2022-10-22T03:45:35.266Z,16.8
2022-10-22T03:46:38.252Z,16.8
2022-10-22T03:47:43.142Z,16.8
2022-10-22T03:48:46.974Z,16.8
2022-10-22T03:49:50.147Z,16.8
2022-10-22T03:50:53.397Z,16.8
2022-10-22T03:51:55.916Z,16.8
2022-10-22T03:52:58.734Z,16.8
2022-10-22T03:54:01.717Z,16.8
2022-10-22T03:55:04.780Z,16.8
2022-10-22T03:56:07.663Z,16.8
2022-10-22T03:57:10.383Z,16.8
2022-10-22T03:58:13.618Z,16.8
2022-10-22T03:59:16.419Z,16.8
2022-10-22T04:00:19.894Z,16.8
2022-10-22T04:01:23.179Z,16.8
2022-10-22T04:02:26.217Z,16.8
2022-10-22T04:03:29.541Z,16.8
2022-10-22T04:04:33.272Z,16.8
2022-10-22T04:05:36.643Z,16.8
2022-10-22T04:06:38.778Z,16.8
2022-10-22T04:07:43.037Z,16.9
2022-10-22T04:08:46.569Z,16.9
2022-10-22T04:09:50.200Z,16.9
2022-10-22T04:10:53.008Z,16.9
2022-10-22T04:11:56.000Z,16.9
2022-10-22T04:12:58.993Z,16.9
2022-10-22T04:14:02.166Z,16.9
2022-10-22T04:15:05.319Z,16.9
2022-10-22T04:16:08.388Z,16.8
2022-10-22T04:17:11.095Z,16.9
2022-10-22T04:18:13.929Z,16.9
2022-10-22T04:19:17.118Z,16.8
2022-10-22T04:20:20.544Z,16.9
2022-10-22T04:21:23.724Z,16.8
2022-10-22T04:22:26.869Z,16.8
2022-10-22T04:23:30.203Z,16.9
2022-10-22T04:24:33.072Z,16.9
2022-10-22T04:25:36.218Z,16.8
2022-10-22T04:26:39.911Z,16.8
2022-10-22T04:27:43.715Z,16.8
2022-10-22T04:28:46.240Z,16.8
2022-10-22T04:29:49.386Z,16.8
2022-10-22T04:30:52.373Z,16.8
2022-10-22T04:31:55.240Z,16.9
2022-10-22T04:32:57.947Z,16.9
2022-10-22T04:34:00.768Z,16.8
2022-10-22T04:35:04.212Z,16.8
2022-10-22T04:36:07.560Z,16.8
2022-10-22T04:37:11.311Z,16.8
2022-10-22T04:38:14.096Z,16.8
2022-10-22T04:39:16.608Z,16.8
2022-10-22T04:40:19.386Z,16.8
2022-10-22T04:41:21.910Z,16.8
2022-10-22T04:42:25.644Z,16.8
2022-10-22T04:43:28.250Z,16.8
2022-10-22T04:44:30.851Z,16.8
2022-10-22T04:45:33.941Z,16.8
2022-10-22T04:46:36.666Z,16.8
2022-10-22T04:47:40.586Z,16.8
2022-10-22T04:48:44.585Z,16.8
2022-10-22T04:49:47.404Z,16.8
2022-10-22T04:50:50.532Z,16.8
2022-10-22T04:51:54.070Z,16.8
2022-10-22T04:52:58.110Z,16.8
2022-10-22T04:54:00.547Z,16.8
2022-10-22T04:55:02.985Z,16.8
2022-10-22T04:56:05.957Z,16.8
2022-10-22T04:57:08.944Z,16.8
2022-10-22T04:58:12.088Z,16.8
2022-10-22T04:59:15.144Z,16.8
2022-10-22T05:00:18.004Z,16.8
2022-10-22T05:01:21.290Z,16.8
2022-10-22T05:02:24.433Z,16.9
2022-10-22T05:03:27.969Z,16.8
2022-10-22T05:04:30.234Z,16.9
2022-10-22T05:05:33.794Z,16.9
2022-10-22T05:06:37.467Z,16.9
2022-10-22T05:07:42.068Z,16.9
2022-10-22T05:08:46.121Z,16.8
2022-10-22T05:09:49.784Z,16.9
2022-10-22T05:10:52.582Z,16.9
2022-10-22T05:11:55.362Z,16.9
2022-10-22T05:12:57.876Z,16.9
2022-10-22T05:14:00.778Z,16.9
2022-10-22T05:15:03.856Z,16.8
2022-10-22T05:16:06.835Z,16.9
2022-10-22T05:17:10.174Z,16.9
2022-10-22T05:18:12.223Z,16.9
2022-10-22T05:19:15.672Z,16.9
2022-10-22T05:20:18.492Z,16.9
2022-10-22T05:21:21.861Z,16.9
2022-10-22T05:22:25.009Z,16.8
2022-10-22T05:23:28.573Z,16.9
2022-10-22T05:24:31.614Z,16.9
2022-10-22T05:25:34.122Z,16.8
2022-10-22T05:26:36.637Z,16.9
2022-10-22T05:27:41.229Z,16.9
2022-10-22T05:28:45.156Z,16.8
2022-10-22T05:29:48.387Z,16.9
2022-10-22T05:30:50.823Z,16.8
2022-10-22T05:31:53.807Z,16.8
2022-10-22T05:32:56.896Z,16.8
2022-10-22T05:33:59.889Z,16.8
2022-10-22T05:35:02.605Z,16.8
2022-10-22T05:36:04.481Z,16.8
2022-10-22T05:37:06.659Z,16.8
2022-10-22T05:38:10.726Z,16.8
2022-10-22T05:39:14.503Z,16.8
2022-10-22T05:40:31.781Z,16.8
2022-10-22T05:41:34.493Z,16.8
2022-10-22T05:42:37.730Z,16.8
2022-10-22T05:43:41.990Z,16.8
2022-10-22T05:44:45.101Z,16.8
2022-10-22T05:45:48.090Z,16.8
2022-10-22T05:46:51.546Z,16.8
2022-10-22T05:47:54.729Z,16.8
2022-10-22T05:48:58.188Z,16.8
2022-10-22T05:50:01.689Z,16.8
2022-10-22T05:51:03.926Z,16.8
2022-10-22T05:52:06.707Z,16.8
2022-10-22T05:53:09.446Z,16.8
2022-10-22T05:54:12.517Z,16.8
2022-10-22T05:55:16.293Z,16.8
2022-10-22T05:56:19.486Z,16.8
2022-10-22T05:57:21.818Z,16.8
2022-10-22T05:58:24.917Z,16.8
2022-10-22T05:59:27.650Z,16.8
2022-10-22T06:00:30.719Z,16.8
2022-10-22T06:01:33.889Z,16.8
2022-10-22T06:02:37.428Z,16.8
2022-10-22T06:03:41.274Z,16.8
2022-10-22T06:04:43.149Z,16.7
2022-10-22T06:05:46.768Z,16.7
2022-10-22T06:06:49.641Z,16.7
2022-10-22T06:07:52.102Z,16.7
2022-10-22T06:08:55.230Z,16.7
2022-10-22T06:09:58.973Z,16.7
2022-10-22T06:11:03.103Z,16.7
2022-10-22T06:12:06.301Z,16.7
2022-10-22T06:13:09.731Z,16.7
2022-10-22T06:14:12.608Z,16.6
2022-10-22T06:15:15.033Z,16.6
2022-10-22T06:16:17.823Z,16.6
2022-10-22T06:17:21.103Z,16.6
2022-10-22T06:18:24.165Z,16.6
2022-10-22T06:19:27.334Z,16.6
2022-10-22T06:20:30.122Z,16.6
2022-10-22T06:21:33.270Z,16.6
2022-10-22T06:22:36.338Z,16.6
2022-10-22T06:23:38.864Z,16.6
2022-10-22T06:24:45.609Z,16.6
2022-10-22T06:25:48.720Z,16.6
2022-10-22T06:26:52.518Z,16.6
2022-10-22T06:27:54.741Z,16.6
2022-10-22T06:28:57.703Z,16.6
2022-10-22T06:30:01.158Z,16.6
2022-10-22T06:31:04.409Z,16.6
2022-10-22T06:32:07.474Z,16.5
2022-10-22T06:33:10.243Z,16.5
2022-10-22T06:34:12.817Z,16.6
2022-10-22T06:35:15.960Z,16.6
2022-10-22T06:36:18.393Z,16.6
2022-10-22T06:37:20.913Z,16.5
2022-10-22T06:38:23.415Z,16.5
2022-10-22T06:39:26.791Z,16.5
2022-10-22T06:40:29.398Z,16.5
2022-10-22T06:41:32.755Z,16.5
2022-10-22T06:42:35.996Z,16.5
2022-10-22T06:43:39.489Z,16.5
2022-10-22T06:44:42.638Z,16.5
2022-10-22T06:45:45.595Z,16.5
2022-10-22T06:46:48.090Z,16.6
2022-10-22T06:47:50.399Z,16.5
2022-10-22T06:48:53.381Z,16.5
2022-10-22T06:49:56.451Z,16.6
2022-10-22T06:50:58.761Z,16.5
2022-10-22T06:52:01.547Z,16.6
2022-10-22T06:53:03.985Z,16.5
2022-10-22T06:54:06.692Z,16.5
2022-10-22T06:55:09.686Z,16.6
2022-10-22T06:56:12.232Z,16.5
2022-10-22T06:57:15.316Z,16.6
2022-10-22T06:58:18.861Z,16.5
2022-10-22T06:59:21.777Z,16.6
2022-10-22T07:00:25.646Z,16.5
2022-10-22T07:01:28.888Z,16.6
2022-10-22T07:02:31.977Z,16.6
2022-10-22T07:03:35.328Z,16.6
2022-10-22T07:04:38.190Z,16.6
2022-10-22T07:05:41.613Z,16.6
2022-10-22T07:06:44.782Z,16.6
2022-10-22T07:07:47.664Z,16.6
2022-10-22T07:08:52.001Z,16.6
2022-10-22T07:09:55.780Z,16.6
2022-10-22T07:10:58.299Z,16.7
2022-10-22T07:12:01.479Z,16.7
2022-10-22T07:13:04.609Z,16.7
2022-10-22T07:14:08.385Z,16.7
2022-10-22T07:15:11.425Z,16.7
2022-10-22T07:16:13.929Z,16.7
2022-10-22T07:17:16.712Z,16.7
2022-10-22T07:18:20.412Z,16.7
2022-10-22T07:19:23.216Z,16.8
2022-10-22T07:20:26.577Z,16.8
2022-10-22T07:21:29.443Z,16.8
2022-10-22T07:22:33.174Z,16.8
2022-10-22T07:23:35.572Z,16.8
2022-10-22T07:24:38.710Z,16.8
2022-10-22T07:25:40.960Z,16.8
2022-10-22T07:26:43.175Z,16.9
2022-10-22T07:27:46.299Z,16.9
2022-10-22T07:28:49.642Z,16.9
2022-10-22T07:29:53.159Z,16.9
2022-10-22T07:30:56.692Z,16.8
2022-10-22T07:31:59.687Z,16.9
2022-10-22T07:33:02.732Z,16.8
2022-10-22T07:34:05.604Z,16.8
2022-10-22T07:35:08.890Z,16.8
2022-10-22T07:36:12.154Z,16.8
2022-10-22T07:37:14.865Z,16.8
2022-10-22T07:38:17.960Z,16.8
2022-10-22T07:39:21.695Z,16.8
2022-10-22T07:40:24.221Z,16.8
2022-10-22T07:41:27.030Z,16.8
2022-10-22T07:42:30.780Z,16.8
2022-10-22T07:43:34.082Z,16.7
2022-10-22T07:44:38.135Z,16.7
2022-10-22T07:45:41.920Z,16.7
2022-10-22T07:46:49.646Z,16.7
2022-10-22T07:47:52.910Z,16.7
2022-10-22T07:48:56.325Z,16.7
2022-10-22T07:49:59.278Z,16.7
2022-10-22T07:51:01.850Z,16.7
2022-10-22T07:52:04.984Z,16.7
2022-10-22T07:53:07.642Z,16.7
2022-10-22T07:54:10.678Z,16.7
2022-10-22T07:55:14.016Z,16.7
2022-10-22T07:56:17.247Z,16.6
2022-10-22T07:57:19.805Z,16.7
2022-10-22T07:58:22.475Z,16.7
2022-10-22T07:59:25.525Z,16.7
2022-10-22T08:00:28.420Z,16.7
2022-10-22T08:01:32.147Z,16.7
2022-10-22T08:02:35.556Z,16.7
2022-10-22T08:03:37.779Z,16.7
2022-10-22T08:04:41.041Z,16.7
2022-10-22T08:05:44.015Z,16.8
2022-10-22T08:06:48.578Z,16.7
2022-10-22T08:07:51.735Z,16.7
2022-10-22T08:08:54.689Z,16.8
2022-10-22T08:09:58.174Z,16.8
2022-10-22T08:11:01.236Z,16.8
2022-10-22T08:12:03.403Z,16.8
2022-10-22T08:13:06.405Z,16.8
2022-10-22T08:14:09.012Z,16.8
2022-10-22T08:15:12.282Z,16.8
2022-10-22T08:16:15.647Z,16.8
2022-10-22T08:17:19.170Z,16.8
2022-10-22T08:18:22.642Z,16.9
2022-10-22T08:19:25.441Z,16.8
2022-10-22T08:20:27.980Z,16.9
2022-10-22T08:21:30.778Z,16.9
2022-10-22T08:22:33.398Z,16.9
2022-10-22T08:23:36.741Z,16.9
2022-10-22T08:24:40.367Z,16.9
2022-10-22T08:25:42.798Z,16.9
2022-10-22T08:26:45.949Z,16.9
2022-10-22T08:27:49.948Z,16.9
2022-10-22T08:28:53.329Z,16.9
2022-10-22T08:29:56.784Z,16.9
2022-10-22T08:30:59.969Z,16.9
2022-10-22T08:32:03.454Z,16.9
2022-10-22T08:33:06.963Z,16.9
2022-10-22T08:34:10.314Z,17
2022-10-22T08:35:18.264Z,16.9
2022-10-22T08:36:20.764Z,17
2022-10-22T08:37:24.379Z,17
2022-10-22T08:38:27.037Z,17
2022-10-22T08:39:30.104Z,17
2022-10-22T08:40:33.251Z,17
2022-10-22T08:41:36.424Z,17
2022-10-22T08:42:40.901Z,17
2022-10-22T08:43:45.115Z,17
2022-10-22T08:44:48.441Z,17
2022-10-22T08:45:51.797Z,17
2022-10-22T08:46:54.990Z,17
2022-10-22T08:47:58.594Z,17.1
2022-10-22T08:49:02.657Z,17.1
2022-10-22T08:50:06.095Z,17.1
2022-10-22T08:51:09.134Z,17.1
2022-10-22T08:52:12.275Z,17.1
2022-10-22T08:53:14.443Z,17.1
2022-10-22T08:54:16.672Z,17.2
2022-10-22T08:55:19.466Z,17.2
2022-10-22T08:56:21.984Z,17.2
2022-10-22T08:57:25.182Z,17.2
2022-10-22T08:58:27.847Z,17.2
2022-10-22T08:59:30.276Z,17.3
2022-10-22T09:00:33.095Z,17.3
2022-10-22T09:01:36.081Z,17.3
2022-10-22T09:02:39.856Z,17.3
2022-10-22T09:03:45.108Z,17.3
2022-10-22T09:04:48.703Z,17.3
2022-10-22T09:06:55.579Z,17.3
2022-10-22T09:07:58.374Z,17.3
2022-10-22T09:09:01.498Z,17.3
2022-10-22T09:10:05.065Z,17.4
2022-10-22T09:11:08.053Z,17.3
2022-10-22T09:12:11.635Z,17.4
2022-10-22T09:13:22.141Z,17.4
2022-10-22T09:14:25.842Z,17.4
2022-10-22T09:15:29.021Z,17.4
2022-10-22T09:16:31.532Z,17.4
2022-10-22T09:17:34.056Z,17.4
2022-10-22T09:18:37.151Z,17.4
2022-10-22T09:19:40.088Z,17.5
2022-10-22T09:20:44.211Z,17.5
2022-10-22T09:21:47.317Z,17.5
2022-10-22T09:22:50.959Z,17.5
2022-10-22T09:23:53.752Z,17.6
2022-10-22T09:24:56.579Z,17.5
2022-10-22T09:26:00.374Z,17.6
2022-10-22T09:27:03.661Z,17.6
2022-10-22T09:28:06.683Z,17.6
2022-10-22T09:29:10.161Z,17.6
2022-10-22T09:30:13.719Z,17.6
2022-10-22T09:31:16.871Z,17.6
2022-10-22T09:32:19.938Z,17.6
2022-10-22T09:33:25.372Z,17.6
2022-10-22T09:34:28.462Z,17.6
2022-10-22T09:35:31.861Z,17.6
2022-10-22T09:36:35.381Z,17.6
2022-10-22T09:37:38.245Z,17.6
2022-10-22T09:38:40.962Z,17.6
2022-10-22T09:39:44.469Z,17.6
2022-10-22T09:40:47.330Z,17.6
2022-10-22T09:41:50.109Z,17.6
2022-10-22T09:42:53.454Z,17.6
2022-10-22T09:43:56.526Z,17.7
2022-10-22T09:44:59.681Z,17.7
2022-10-22T09:46:02.759Z,17.7
2022-10-22T09:47:05.279Z,17.7
2022-10-22T09:48:08.343Z,17.7
2022-10-22T09:49:11.424Z,17.7
2022-10-22T09:50:14.435Z,17.8
2022-10-22T09:51:17.799Z,17.9
2022-10-22T09:52:21.299Z,17.8
2022-10-22T09:53:25.069Z,17.9
2022-10-22T09:54:28.165Z,17.9
2022-10-22T09:55:31.053Z,18
2022-10-22T09:56:34.047Z,18
2022-10-22T09:57:44.521Z,18.1
2022-10-22T09:58:50.364Z,18.2
2022-10-22T09:59:53.573Z,18.2
2022-10-22T10:00:57.317Z,18.2
2022-10-22T10:02:38.465Z,18.3
2022-10-22T10:03:42.182Z,18.3
2022-10-22T10:04:44.803Z,18.4
2022-10-22T10:05:48.218Z,18.5
2022-10-22T10:06:51.576Z,18.6
2022-10-22T10:07:54.521Z,18.6
2022-10-22T10:08:57.854Z,18.7
2022-10-22T10:09:59.971Z,18.8
2022-10-22T10:11:03.154Z,18.9
2022-10-22T10:12:05.681Z,18.9
2022-10-22T10:13:08.195Z,19
2022-10-22T10:14:11.585Z,19.1
2022-10-22T10:15:14.943Z,19.2
2022-10-22T10:16:18.309Z,19.2
2022-10-22T10:17:21.451Z,19.3
2022-10-22T10:18:24.712Z,19.4
2022-10-22T10:19:27.508Z,19.4
2022-10-22T10:20:30.578Z,19.5
2022-10-22T10:21:33.666Z,19.6
2022-10-22T10:22:37.377Z,19.7
2022-10-22T10:23:41.925Z,19.7
2022-10-22T10:24:44.687Z,19.8
2022-10-22T10:25:48.110Z,19.8
2022-10-22T10:26:50.913Z,19.9
2022-10-22T10:27:54.162Z,20
2022-10-22T10:28:57.445Z,20
2022-10-22T10:30:00.786Z,20.1
2022-10-22T10:31:04.501Z,20.2
2022-10-22T10:32:07.394Z,20.3
2022-10-22T10:33:10.502Z,20.4
2022-10-22T10:34:13.905Z,20.5
2022-10-22T10:35:17.263Z,20.6
2022-10-22T10:36:21.256Z,20.8
2022-10-22T10:37:25.004Z,21
2022-10-22T10:38:30.762Z,21.1
2022-10-22T10:39:33.789Z,21.3
2022-10-22T10:40:37.556Z,21.4
2022-10-22T10:41:41.688Z,21.6
2022-10-22T10:42:44.786Z,21.7
2022-10-22T10:43:48.723Z,21.8
2022-10-22T10:44:52.449Z,21.9
2022-10-22T10:45:56.906Z,22
2022-10-22T10:47:00.263Z,22.1
2022-10-22T10:48:03.613Z,22.1
2022-10-22T10:49:06.407Z,22.1
2022-10-22T10:50:09.856Z,22.2
2022-10-22T10:51:12.014Z,22.2
2022-10-22T10:52:21.985Z,22.3
2022-10-22T10:53:25.682Z,22.3
2022-10-22T10:54:29.926Z,22.3
2022-10-22T10:55:34.238Z,22.4
2022-10-22T10:56:40.060Z,22.4
2022-10-22T10:57:44.409Z,22.5
2022-10-22T10:58:47.471Z,22.6
2022-10-22T10:59:49.706Z,22.7
2022-10-22T11:00:53.053Z,22.9
2022-10-22T11:01:56.356Z,23
2022-10-22T11:02:59.892Z,23.1
2022-10-22T11:04:02.453Z,23.2
2022-10-22T11:05:05.666Z,23.4
2022-10-22T11:06:09.278Z,23.4
2022-10-22T11:07:35.356Z,23.5
2022-10-22T11:08:38.582Z,23.6
2022-10-22T11:09:42.937Z,23.6
2022-10-22T11:10:46.522Z,23.7
2022-10-22T11:11:50.810Z,23.8
2022-10-22T11:12:53.955Z,23.8
2022-10-22T11:13:57.113Z,23.9
2022-10-22T11:14:59.904Z,23.9
2022-10-22T11:16:02.493Z,24
2022-10-22T11:17:05.203Z,24.1
2022-10-22T11:18:07.996Z,24.1
2022-10-22T11:19:33.356Z,24.2
2022-10-22T11:21:02.681Z,24.2
2022-10-22T11:22:06.069Z,24.2
2022-10-22T11:23:25.902Z,24.2
2022-10-22T11:24:28.849Z,24.2
2022-10-22T11:25:32.272Z,24.3
2022-10-22T11:26:35.550Z,24.3
2022-10-22T11:27:39.665Z,24.3
2022-10-22T11:28:43.289Z,24.4
2022-10-22T11:29:46.637Z,24.4
2022-10-22T11:30:49.499Z,24.5
2022-10-22T11:31:52.280Z,24.5
2022-10-22T11:32:55.145Z,24.6
2022-10-22T11:34:33.491Z,24.6
2022-10-22T11:35:37.963Z,24.7
2022-10-22T11:36:41.081Z,24.7
2022-10-22T11:37:44.884Z,24.8
2022-10-22T11:38:48.114Z,24.8
2022-10-22T11:39:50.923Z,24.9
2022-10-22T11:40:54.348Z,25
2022-10-22T11:41:58.132Z,25
2022-10-22T11:43:01.242Z,25.1
2022-10-22T11:44:03.477Z,25.1
2022-10-22T11:45:06.299Z,25.1
2022-10-22T11:46:08.823Z,25.2
2022-10-22T11:47:11.899Z,25.2
2022-10-22T11:48:14.604Z,25.3
2022-10-22T11:49:17.745Z,25.4
2022-10-22T11:50:20.738Z,25.4
2022-10-22T11:51:24.233Z,25.5
2022-10-22T11:52:26.844Z,25.5
2022-10-22T11:53:29.744Z,25.5
2022-10-22T11:54:33.540Z,25.6
2022-10-22T11:55:35.887Z,25.6
2022-10-22T11:56:38.948Z,25.6
2022-10-22T11:57:43.473Z,25.6
2022-10-22T11:58:54.948Z,25.7
2022-10-22T11:59:59.012Z,25.7
2022-10-22T12:01:01.855Z,25.7
2022-10-22T12:02:04.910Z,25.8
2022-10-22T12:03:07.493Z,25.9
2022-10-22T12:04:11.048Z,25.9
2022-10-22T12:05:14.149Z,25.9
2022-10-22T12:06:17.425Z,25.9
2022-10-22T12:07:20.579Z,25.9
2022-10-22T12:08:23.261Z,25.9
2022-10-22T12:09:26.254Z,25.9
2022-10-22T12:10:28.837Z,25.9
2022-10-22T12:11:31.949Z,25.9
2022-10-22T12:12:35.025Z,25.9
2022-10-22T12:13:39.112Z,25.9
2022-10-22T12:14:42.311Z,25.9
2022-10-22T12:15:45.690Z,25.9
2022-10-22T12:16:58.279Z,25.9
2022-10-22T12:18:01.019Z,25.9
2022-10-22T12:19:04.442Z,26
2022-10-22T12:20:06.923Z,25.9
2022-10-22T12:21:10.086Z,25.9
2022-10-22T12:22:13.432Z,25.9
2022-10-22T12:23:16.886Z,25.9
2022-10-22T12:24:19.609Z,25.9
2022-10-22T12:25:22.993Z,25.9
2022-10-22T12:26:26.006Z,25.9
2022-10-22T12:27:29.338Z,25.8
2022-10-22T12:28:32.677Z,25.7
2022-10-22T12:29:36.454Z,25.7
2022-10-22T12:30:39.296Z,25.6
2022-10-22T12:31:42.095Z,25.6
2022-10-22T12:32:45.518Z,25.6
2022-10-22T12:33:48.649Z,25.5
2022-10-22T12:34:50.909Z,25.5
2022-10-22T12:35:53.996Z,25.4
2022-10-22T12:36:57.257Z,25.4
2022-10-22T12:38:00.358Z,25.4
2022-10-22T12:39:03.424Z,25.4
2022-10-22T12:40:06.608Z,25.3
2022-10-22T12:41:09.796Z,25.3
2022-10-22T12:42:12.586Z,25.2
2022-10-22T12:43:16.348Z,25.2
2022-10-22T12:44:19.928Z,25.2
2022-10-22T12:45:24.038Z,25.1
2022-10-22T12:46:27.345Z,25
2022-10-22T12:47:30.491Z,24.9
2022-10-22T12:48:33.644Z,24.8
2022-10-22T12:49:36.715Z,24.7
2022-10-22T12:50:39.519Z,24.7
2022-10-22T12:51:42.672Z,24.6
2022-10-22T12:52:45.196Z,24.6
2022-10-22T12:53:47.998Z,24.6
2022-10-22T12:54:50.866Z,24.6
2022-10-22T12:55:53.297Z,24.6
2022-10-22T12:56:56.362Z,24.5
2022-10-22T12:57:59.807Z,24.5
2022-10-22T12:59:02.895Z,24.5
2022-10-22T13:00:06.461Z,24.5
2022-10-22T13:01:10.575Z,24.5
2022-10-22T13:02:14.214Z,24.5
2022-10-22T13:03:17.586Z,24.5
2022-10-22T13:04:20.939Z,24.4
2022-10-22T13:05:24.116Z,24.4
2022-10-22T13:06:27.390Z,24.4
2022-10-22T13:07:29.641Z,24.4
2022-10-22T13:08:32.620Z,24.3
2022-10-22T13:09:37.541Z,24.3
2022-10-22T13:10:40.409Z,24.3
2022-10-22T13:11:43.544Z,24.3
2022-10-22T13:12:47.211Z,24.3
2022-10-22T13:13:49.999Z,24.3
2022-10-22T13:14:53.095Z,24.3
2022-10-22T13:15:56.817Z,24.3
2022-10-22T13:17:00.395Z,24.3
2022-10-22T13:18:03.902Z,24.3
2022-10-22T13:19:06.998Z,24.3
2022-10-22T13:20:09.988Z,24.3
2022-10-22T13:21:13.443Z,24.3
2022-10-22T13:22:16.163Z,24.2
2022-10-22T13:23:18.875Z,24.2
2022-10-22T13:24:21.750Z,24.2
2022-10-22T13:25:24.536Z,24.2
2022-10-22T13:26:27.175Z,24.2
2022-10-22T13:27:30.977Z,24.2
2022-10-22T13:28:34.595Z,24.2
2022-10-22T13:29:36.936Z,24.2
2022-10-22T13:30:39.504Z,24.1
2022-10-22T13:31:42.559Z,24.1
2022-10-22T13:32:46.034Z,24.1
2022-10-22T13:33:49.543Z,24.1
2022-10-22T13:34:52.905Z,24.1
2022-10-22T13:35:56.127Z,24.1
2022-10-22T13:36:58.932Z,24.1
2022-10-22T13:38:01.997Z,24.1
2022-10-22T13:39:04.987Z,24.1
2022-10-22T13:40:11.686Z,24.1
2022-10-22T13:41:14.805Z,24.1
2022-10-22T13:42:16.766Z,24.1
2022-10-22T13:43:20.120Z,24.1
2022-10-22T13:44:23.495Z,24.1
2022-10-22T13:45:26.182Z,24.1
2022-10-22T13:46:29.002Z,24
2022-10-22T13:47:33.025Z,23.9
2022-10-22T13:48:36.839Z,23.9
2022-10-22T13:49:39.668Z,23.8
2022-10-22T13:50:42.467Z,23.7
2022-10-22T13:51:46.467Z,23.7
2022-10-22T13:52:49.952Z,23.6
2022-10-22T13:53:53.568Z,23.5
2022-10-22T13:54:57.020Z,23.4
2022-10-22T13:56:00.444Z,23.3
2022-10-22T13:57:03.595Z,23.2
2022-10-22T13:58:06.835Z,23.2
2022-10-22T13:59:10.489Z,23.1
2022-10-22T14:00:12.928Z,23
2022-10-22T14:01:16.341Z,23
2022-10-22T14:02:19.317Z,22.9
2022-10-22T14:03:22.660Z,22.8
2022-10-22T14:04:25.914Z,22.8
2022-10-22T14:05:29.029Z,22.7
2022-10-22T14:06:32.790Z,22.7
2022-10-22T14:07:35.672Z,22.6